sensor_id;sensor_type;location;lat;lon;timestamp;pressure;altitude;pressure_sealevel;temperature;humidity
59789;BME280;47353;51.614;5.530;2022-11-20T00:02:14;101250.38;;;-3.42;94.34
59789;BME280;47353;51.614;5.530;2022-11-20T00:04:40;101258.31;;;-3.41;94.41
59789;BME280;47353;51.614;5.530;2022-11-20T00:07:05;101255.25;;;-3.38;94.58
59789;BME280;47353;51.614;5.530;2022-11-20T00:09:30;101263.56;;;-3.39;94.74
59789;BME280;47353;51.614;5.530;2022-11-20T00:11:56;101263.38;;;-3.38;94.61
59789;BME280;47353;51.614;5.530;2022-11-20T00:14:21;101250.66;;;-3.38;94.70
59789;BME280;47353;51.614;5.530;2022-11-20T00:16:47;101255.25;;;-3.38;94.86
59789;BME280;47353;51.614;5.530;2022-11-20T00:19:12;101256.25;;;-3.39;94.82
59789;BME280;47353;51.614;5.530;2022-11-20T00:21:37;101248.50;;;-3.42;94.78
59789;BME280;47353;51.614;5.530;2022-11-20T00:24:03;101250.75;;;-3.46;94.58
59789;BME280;47353;51.614;5.530;2022-11-20T00:26:29;101247.34;;;-3.48;94.69
59789;BME280;47353;51.614;5.530;2022-11-20T00:28:57;101250.41;;;-3.51;94.87
59789;BME280;47353;51.614;5.530;2022-11-20T00:31:23;101240.59;;;-3.52;95.01
59789;BME280;47353;51.614;5.530;2022-11-20T00:33:49;101241.44;;;-3.51;95.06
59789;BME280;47353;51.614;5.530;2022-11-20T00:36:17;101247.72;;;-3.51;94.92
59789;BME280;47353;51.614;5.530;2022-11-20T00:38:43;101239.41;;;-3.49;95.21
59789;BME280;47353;51.614;5.530;2022-11-20T00:41:12;101239.91;;;-3.46;95.17
59789;BME280;47353;51.614;5.530;2022-11-20T00:43:37;101237.22;;;-3.46;95.27
59789;BME280;47353;51.614;5.530;2022-11-20T00:46:13;101243.63;;;-3.47;95.21
59789;BME280;47353;51.614;5.530;2022-11-20T00:48:39;101254.78;;;-3.50;95.17
59789;BME280;47353;51.614;5.530;2022-11-20T00:51:04;101251.47;;;-3.60;95.20
59789;BME280;47353;51.614;5.530;2022-11-20T00:53:30;101248.44;;;-3.65;95.02
59789;BME280;47353;51.614;5.530;2022-11-20T00:58:23;101246.63;;;-3.72;94.66
59789;BME280;47353;51.614;5.530;2022-11-20T01:00:49;101244.09;;;-3.74;95.32
59789;BME280;47353;51.614;5.530;2022-11-20T01:03:15;101244.28;;;-3.75;95.18
59789;BME280;47353;51.614;5.530;2022-11-20T01:05:41;101246.81;;;-3.82;95.26
59789;BME280;47353;51.614;5.530;2022-11-20T01:08:07;101250.69;;;-3.76;95.44
59789;BME280;47353;51.614;5.530;2022-11-20T01:10:32;101246.47;;;-3.79;95.26
59789;BME280;47353;51.614;5.530;2022-11-20T01:12:58;101253.09;;;-3.81;95.51
59789;BME280;47353;51.614;5.530;2022-11-20T01:15:42;101260.00;;;-3.79;95.31
59789;BME280;47353;51.614;5.530;2022-11-20T01:18:07;101255.13;;;-3.83;95.57
59789;BME280;47353;51.614;5.530;2022-11-20T01:20:36;101256.66;;;-3.89;95.82
59789;BME280;47353;51.614;5.530;2022-11-20T01:23:02;101247.19;;;-3.93;95.82
59789;BME280;47353;51.614;5.530;2022-11-20T01:25:28;101242.84;;;-4.02;95.93
59789;BME280;47353;51.614;5.530;2022-11-20T01:27:54;101246.56;;;-4.03;96.07
59789;BME280;47353;51.614;5.530;2022-11-20T01:30:19;101238.97;;;-4.07;96.26
59789;BME280;47353;51.614;5.530;2022-11-20T01:32:45;101246.41;;;-4.09;96.49
59789;BME280;47353;51.614;5.530;2022-11-20T01:35:10;101243.88;;;-4.11;96.64
59789;BME280;47353;51.614;5.530;2022-11-20T01:37:36;101244.56;;;-4.17;96.80
59789;BME280;47353;51.614;5.530;2022-11-20T01:40:02;101236.28;;;-4.15;97.04
59789;BME280;47353;51.614;5.530;2022-11-20T01:42:27;101233.94;;;-4.18;96.94
59789;BME280;47353;51.614;5.530;2022-11-20T01:48:14;101241.00;;;-4.17;97.34
59789;BME280;47353;51.614;5.530;2022-11-20T01:50:40;101240.50;;;-4.21;97.75
59789;BME280;47353;51.614;5.530;2022-11-20T01:53:09;101240.84;;;-4.24;97.66
59789;BME280;47353;51.614;5.530;2022-11-20T01:55:41;101242.22;;;-4.28;97.76
59789;BME280;47353;51.614;5.530;2022-11-20T01:58:08;101241.53;;;-4.30;98.05
59789;BME280;47353;51.614;5.530;2022-11-20T02:00:34;101242.56;;;-4.31;97.85
59789;BME280;47353;51.614;5.530;2022-11-20T02:03:03;101237.50;;;-4.34;98.04
59789;BME280;47353;51.614;5.530;2022-11-20T02:05:47;101241.19;;;-4.35;98.20
59789;BME280;47353;51.614;5.530;2022-11-20T02:08:15;101240.56;;;-4.37;98.17
59789;BME280;47353;51.614;5.530;2022-11-20T02:10:41;101247.97;;;-4.39;98.36
59789;BME280;47353;51.614;5.530;2022-11-20T02:13:06;101242.41;;;-4.37;98.56
59789;BME280;47353;51.614;5.530;2022-11-20T02:15:51;101240.91;;;-4.40;98.70
59789;BME280;47353;51.614;5.530;2022-11-20T02:18:18;101234.66;;;-4.40;98.73
59789;BME280;47353;51.614;5.530;2022-11-20T02:20:47;101227.72;;;-4.43;98.57
59789;BME280;47353;51.614;5.530;2022-11-20T02:23:26;101234.31;;;-4.45;98.99
59789;BME280;47353;51.614;5.530;2022-11-20T02:25:54;101227.22;;;-4.46;99.00
59789;BME280;47353;51.614;5.530;2022-11-20T02:28:20;101226.72;;;-4.42;99.35
59789;BME280;47353;51.614;5.530;2022-11-20T02:30:46;101221.66;;;-4.45;99.58
59789;BME280;47353;51.614;5.530;2022-11-20T02:33:12;101217.28;;;-4.46;99.54
59789;BME280;47353;51.614;5.530;2022-11-20T02:35:43;101210.16;;;-4.47;99.66
59789;BME280;47353;51.614;5.530;2022-11-20T02:38:09;101222.00;;;-4.48;99.86
59789;BME280;47353;51.614;5.530;2022-11-20T02:40:35;101214.41;;;-4.52;99.73
59789;BME280;47353;51.614;5.530;2022-11-20T02:43:00;101224.19;;;-4.51;99.95
59789;BME280;47353;51.614;5.530;2022-11-20T02:45:25;101233.66;;;-4.55;100.00
59789;BME280;47353;51.614;5.530;2022-11-20T02:47:51;101228.59;;;-4.58;100.00
59789;BME280;47353;51.614;5.530;2022-11-20T02:50:17;101224.53;;;-4.62;100.00
59789;BME280;47353;51.614;5.530;2022-11-20T02:52:43;101236.69;;;-4.58;100.00
59789;BME280;47353;51.614;5.530;2022-11-20T02:55:08;101241.41;;;-4.60;100.00
59789;BME280;47353;51.614;5.530;2022-11-20T02:57:34;101227.06;;;-4.61;100.00
59789;BME280;47353;51.614;5.530;2022-11-20T02:59:59;101225.56;;;-4.63;100.00
59789;BME280;47353;51.614;5.530;2022-11-20T03:02:25;101224.88;;;-4.65;100.00
59789;BME280;47353;51.614;5.530;2022-11-20T03:04:50;101224.88;;;-4.65;100.00
59789;BME280;47353;51.614;5.530;2022-11-20T03:07:15;101226.25;;;-4.61;100.00
59789;BME280;47353;51.614;5.530;2022-11-20T03:09:41;101221.47;;;-4.51;100.00
59789;BME280;47353;51.614;5.530;2022-11-20T03:12:07;101224.50;;;-4.38;100.00
59789;BME280;47353;51.614;5.530;2022-11-20T03:14:32;101213.66;;;-4.22;100.00
59789;BME280;47353;51.614;5.530;2022-11-20T03:16:58;101212.78;;;-4.07;100.00
59789;BME280;47353;51.614;5.530;2022-11-20T03:19:23;101204.28;;;-3.96;100.00
59789;BME280;47353;51.614;5.530;2022-11-20T03:21:49;101198.50;;;-3.85;100.00
59789;BME280;47353;51.614;5.530;2022-11-20T03:24:14;101196.59;;;-3.76;100.00
59789;BME280;47353;51.614;5.530;2022-11-20T03:26:40;101185.13;;;-3.78;100.00
59789;BME280;47353;51.614;5.530;2022-11-20T03:29:06;101182.78;;;-3.81;100.00
59789;BME280;47353;51.614;5.530;2022-11-20T03:31:34;101195.44;;;-3.82;100.00
59789;BME280;47353;51.614;5.530;2022-11-20T03:34:01;101192.59;;;-3.88;100.00
59789;BME280;47353;51.614;5.530;2022-11-20T03:36:27;101187.53;;;-3.91;100.00
59789;BME280;47353;51.614;5.530;2022-11-20T03:38:55;101193.66;;;-3.97;100.00
59789;BME280;47353;51.614;5.530;2022-11-20T03:41:23;101184.56;;;-4.04;100.00
59789;BME280;47353;51.614;5.530;2022-11-20T03:43:59;101187.63;;;-4.07;100.00
59789;BME280;47353;51.614;5.530;2022-11-20T03:46:25;101188.13;;;-4.12;100.00
59789;BME280;47353;51.614;5.530;2022-11-20T03:48:52;101197.78;;;-4.17;100.00
59789;BME280;47353;51.614;5.530;2022-11-20T03:51:23;101191.69;;;-4.19;100.00
59789;BME280;47353;51.614;5.530;2022-11-20T03:53:50;101188.88;;;-4.26;100.00
59789;BME280;47353;51.614;5.530;2022-11-20T03:56:18;101192.22;;;-4.32;100.00
59789;BME280;47353;51.614;5.530;2022-11-20T03:58:43;101184.00;;;-4.38;100.00
59789;BME280;47353;51.614;5.530;2022-11-20T04:01:11;101187.03;;;-4.41;100.00
59789;BME280;47353;51.614;5.530;2022-11-20T04:03:39;101176.94;;;-4.47;100.00
59789;BME280;47353;51.614;5.530;2022-11-20T04:06:07;101177.28;;;-4.50;100.00
59789;BME280;47353;51.614;5.530;2022-11-20T04:08:34;101172.88;;;-4.51;100.00
59789;BME280;47353;51.614;5.530;2022-11-20T04:11:13;101166.78;;;-4.53;100.00
59789;BME280;47353;51.614;5.530;2022-11-20T04:13:40;101160.91;;;-4.57;100.00
59789;BME280;47353;51.614;5.530;2022-11-20T04:16:06;101172.22;;;-4.61;100.00
59789;BME280;47353;51.614;5.530;2022-11-20T04:18:32;101173.41;;;-4.64;100.00
59789;BME280;47353;51.614;5.530;2022-11-20T04:20:58;101172.75;;;-4.66;100.00
59789;BME280;47353;51.614;5.530;2022-11-20T04:23:24;101166.81;;;-4.61;100.00
59789;BME280;47353;51.614;5.530;2022-11-20T04:25:50;101160.75;;;-4.63;100.00
59789;BME280;47353;51.614;5.530;2022-11-20T04:28:15;101167.81;;;-4.54;100.00
59789;BME280;47353;51.614;5.530;2022-11-20T04:30:41;101164.75;;;-4.51;100.00
59789;BME280;47353;51.614;5.530;2022-11-20T04:33:06;101166.47;;;-4.50;100.00
59789;BME280;47353;51.614;5.530;2022-11-20T04:35:35;101162.06;;;-4.51;100.00
59789;BME280;47353;51.614;5.530;2022-11-20T04:38:01;101157.00;;;-4.54;100.00
59789;BME280;47353;51.614;5.530;2022-11-20T04:40:28;101161.56;;;-4.55;100.00
59789;BME280;47353;51.614;5.530;2022-11-20T04:42:54;101148.56;;;-4.59;100.00
59789;BME280;47353;51.614;5.530;2022-11-20T04:45:19;101152.81;;;-4.65;100.00
59789;BME280;47353;51.614;5.530;2022-11-20T04:47:45;101150.28;;;-4.66;100.00
59789;BME280;47353;51.614;5.530;2022-11-20T04:50:10;101157.72;;;-4.68;100.00
59789;BME280;47353;51.614;5.530;2022-11-20T04:52:36;101159.25;;;-4.66;100.00
59789;BME280;47353;51.614;5.530;2022-11-20T04:55:01;101158.38;;;-4.66;100.00
59789;BME280;47353;51.614;5.530;2022-11-20T04:57:26;101154.16;;;-4.61;100.00
59789;BME280;47353;51.614;5.530;2022-11-20T04:59:52;101147.41;;;-4.49;100.00
59789;BME280;47353;51.614;5.530;2022-11-20T05:02:17;101143.66;;;-4.40;100.00
59789;BME280;47353;51.614;5.530;2022-11-20T05:04:43;101142.28;;;-4.36;100.00
59789;BME280;47353;51.614;5.530;2022-11-20T05:07:08;101143.47;;;-4.30;100.00
59789;BME280;47353;51.614;5.530;2022-11-20T05:09:33;101141.22;;;-4.27;100.00
59789;BME280;47353;51.614;5.530;2022-11-20T05:11:59;101134.47;;;-4.23;100.00
59789;BME280;47353;51.614;5.530;2022-11-20T05:14:24;101131.94;;;-4.24;100.00
59789;BME280;47353;51.614;5.530;2022-11-20T05:16:50;101134.47;;;-4.23;100.00
59789;BME280;47353;51.614;5.530;2022-11-20T05:19:15;101133.78;;;-4.25;100.00
59789;BME280;47353;51.614;5.530;2022-11-20T05:21:40;101130.25;;;-4.25;100.00
59789;BME280;47353;51.614;5.530;2022-11-20T05:24:06;101133.13;;;-4.27;100.00
59789;BME280;47353;51.614;5.530;2022-11-20T05:26:32;101135.19;;;-4.29;100.00
59789;BME280;47353;51.614;5.530;2022-11-20T05:28:57;101129.28;;;-4.32;100.00
59789;BME280;47353;51.614;5.530;2022-11-20T05:31:24;101136.34;;;-4.31;100.00
59789;BME280;47353;51.614;5.530;2022-11-20T05:33:50;101121.31;;;-4.26;100.00
59789;BME280;47353;51.614;5.530;2022-11-20T05:36:16;101128.91;;;-4.21;100.00
59789;BME280;47353;51.614;5.530;2022-11-20T05:38:42;101129.19;;;-4.16;100.00
59789;BME280;47353;51.614;5.530;2022-11-20T05:41:16;101122.59;;;-4.06;100.00
59789;BME280;47353;51.614;5.530;2022-11-20T05:43:43;101126.25;;;-3.99;100.00
59789;BME280;47353;51.614;5.530;2022-11-20T05:46:11;101128.25;;;-3.93;100.00
59789;BME280;47353;51.614;5.530;2022-11-20T05:48:38;101130.06;;;-3.85;100.00
59789;BME280;47353;51.614;5.530;2022-11-20T05:51:05;101131.88;;;-3.78;100.00
59789;BME280;47353;51.614;5.530;2022-11-20T05:53:32;101145.72;;;-3.73;100.00
59789;BME280;47353;51.614;5.530;2022-11-20T05:56:00;101137.56;;;-3.65;100.00
59789;BME280;47353;51.614;5.530;2022-11-20T05:58:26;101125.06;;;-3.66;100.00
59789;BME280;47353;51.614;5.530;2022-11-20T06:00:52;101142.06;;;-3.57;100.00
59789;BME280;47353;51.614;5.530;2022-11-20T06:03:17;101137.50;;;-3.57;100.00
59789;BME280;47353;51.614;5.530;2022-11-20T06:05:43;101140.50;;;-3.52;100.00
59789;BME280;47353;51.614;5.530;2022-11-20T06:08:08;101143.69;;;-3.48;100.00
59789;BME280;47353;51.614;5.530;2022-11-20T06:10:33;101143.03;;;-3.50;100.00
59789;BME280;47353;51.614;5.530;2022-11-20T06:12:59;101146.22;;;-3.47;100.00
59789;BME280;47353;51.614;5.530;2022-11-20T06:15:24;101152.81;;;-3.41;100.00
59789;BME280;47353;51.614;5.530;2022-11-20T06:17:54;101145.63;;;-3.34;100.00
59789;BME280;47353;51.614;5.530;2022-11-20T06:20:20;101152.66;;;-3.25;100.00
59789;BME280;47353;51.614;5.530;2022-11-20T06:22:46;101147.25;;;-3.25;100.00
59789;BME280;47353;51.614;5.530;2022-11-20T06:25:11;101157.66;;;-3.14;100.00
59789;BME280;47353;51.614;5.530;2022-11-20T06:27:37;101153.56;;;-3.10;99.76
59789;BME280;47353;51.614;5.530;2022-11-20T06:30:03;101146.97;;;-3.07;99.95
59789;BME280;47353;51.614;5.530;2022-11-20T06:32:29;101152.84;;;-3.04;99.84
59789;BME280;47353;51.614;5.530;2022-11-20T06:34:54;101144.06;;;-3.06;99.67
59789;BME280;47353;51.614;5.530;2022-11-20T06:37:20;101138.66;;;-3.06;99.60
59789;BME280;47353;51.614;5.530;2022-11-20T06:39:45;101143.03;;;-3.05;99.70
59789;BME280;47353;51.614;5.530;2022-11-20T06:42:11;101138.47;;;-3.04;99.74
59789;BME280;47353;51.614;5.530;2022-11-20T06:44:36;101144.47;;;-2.94;99.00
59789;BME280;47353;51.614;5.530;2022-11-20T06:47:01;101147.91;;;-3.00;99.46
59789;BME280;47353;51.614;5.530;2022-11-20T06:49:27;101143.47;;;-2.93;99.26
59789;BME280;47353;51.614;5.530;2022-11-20T06:51:52;101143.28;;;-2.92;99.19
59789;BME280;47353;51.614;5.530;2022-11-20T06:54:18;101133.06;;;-2.90;99.67
59789;BME280;47353;51.614;5.530;2022-11-20T06:56:46;101127.31;;;-2.87;99.79
59789;BME280;47353;51.614;5.530;2022-11-20T06:59:13;101126.78;;;-2.82;99.65
59789;BME280;47353;51.614;5.530;2022-11-20T07:01:38;101126.22;;;-2.78;99.57
59789;BME280;47353;51.614;5.530;2022-11-20T07:04:03;101131.28;;;-2.75;99.46
59789;BME280;47353;51.614;5.530;2022-11-20T07:06:29;101119.59;;;-2.75;99.30
59789;BME280;47353;51.614;5.530;2022-11-20T07:08:55;101124.81;;;-2.74;99.53
59789;BME280;47353;51.614;5.530;2022-11-20T07:11:20;101123.41;;;-2.70;98.98
59789;BME280;47353;51.614;5.530;2022-11-20T07:13:45;101121.72;;;-2.71;99.01
59789;BME280;47353;51.614;5.530;2022-11-20T07:16:11;101117.06;;;-2.77;99.65
59789;BME280;47353;51.614;5.530;2022-11-20T07:18:36;101115.66;;;-2.73;99.12
59789;BME280;47353;51.614;5.530;2022-11-20T07:21:03;101111.09;;;-2.72;99.46
59789;BME280;47353;51.614;5.530;2022-11-20T07:23:30;101122.41;;;-2.69;99.88
59789;BME280;47353;51.614;5.530;2022-11-20T07:25:56;101118.75;;;-2.61;99.60
59789;BME280;47353;51.614;5.530;2022-11-20T07:28:21;101129.22;;;-2.58;99.42
59789;BME280;47353;51.614;5.530;2022-11-20T07:30:53;101127.63;;;-2.53;99.85
59789;BME280;47353;51.614;5.530;2022-11-20T07:33:19;101111.66;;;-2.48;99.79
59789;BME280;47353;51.614;5.530;2022-11-20T07:35:45;101107.84;;;-2.39;99.14
59789;BME280;47353;51.614;5.530;2022-11-20T07:38:11;101112.97;;;-2.29;99.29
59789;BME280;47353;51.614;5.530;2022-11-20T07:40:36;101111.03;;;-2.21;99.47
59789;BME280;47353;51.614;5.530;2022-11-20T07:43:01;101110.91;;;-2.13;99.39
59789;BME280;47353;51.614;5.530;2022-11-20T07:45:27;101103.53;;;-2.04;99.77
59789;BME280;47353;51.614;5.530;2022-11-20T07:47:52;101113.03;;;-1.94;99.75
59789;BME280;47353;51.614;5.530;2022-11-20T07:50:19;101108.72;;;-1.88;99.48
59789;BME280;47353;51.614;5.530;2022-11-20T07:52:45;101122.09;;;-1.87;99.06
59789;BME280;47353;51.614;5.530;2022-11-20T07:55:11;101119.03;;;-1.84;98.63
59789;BME280;47353;51.614;5.530;2022-11-20T07:57:36;101112.38;;;-1.81;98.65
59789;BME280;47353;51.614;5.530;2022-11-20T08:00:03;101124.50;;;-1.77;98.92
59789;BME280;47353;51.614;5.530;2022-11-20T08:02:29;101126.06;;;-1.68;98.06
59789;BME280;47353;51.614;5.530;2022-11-20T08:04:54;101121.97;;;-1.64;98.43
59789;BME280;47353;51.614;5.530;2022-11-20T08:07:20;101123.91;;;-1.58;98.44
59789;BME280;47353;51.614;5.530;2022-11-20T08:09:45;101116.03;;;-1.53;98.13
59789;BME280;47353;51.614;5.530;2022-11-20T08:12:20;101113.84;;;-1.43;97.91
59789;BME280;47353;51.614;5.530;2022-11-20T08:15:05;101117.22;;;-1.41;97.57
59789;BME280;47353;51.614;5.530;2022-11-20T08:17:31;101107.44;;;-1.35;98.01
59789;BME280;47353;51.614;5.530;2022-11-20T08:19:56;101112.16;;;-1.23;98.00
59789;BME280;47353;51.614;5.530;2022-11-20T08:22:22;101109.97;;;-1.13;97.83
59789;BME280;47353;51.614;5.530;2022-11-20T08:24:47;101110.28;;;-1.01;97.85
59789;BME280;47353;51.614;5.530;2022-11-20T08:27:13;101099.94;;;-0.91;97.63
59789;BME280;47353;51.614;5.530;2022-11-20T08:29:38;101102.94;;;-0.80;96.82
59789;BME280;47353;51.614;5.530;2022-11-20T08:32:04;101096.88;;;-0.82;96.43
59789;BME280;47353;51.614;5.530;2022-11-20T08:34:29;101103.59;;;-0.78;96.51
59789;BME280;47353;51.614;5.530;2022-11-20T08:36:55;101105.31;;;-0.70;96.72
59789;BME280;47353;51.614;5.530;2022-11-20T08:39:20;101105.16;;;-0.62;96.41
59789;BME280;47353;51.614;5.530;2022-11-20T08:41:45;101107.94;;;-0.56;95.99
59789;BME280;47353;51.614;5.530;2022-11-20T08:44:11;101107.16;;;-0.50;96.05
59789;BME280;47353;51.614;5.530;2022-11-20T08:46:41;101102.16;;;-0.40;96.06
59789;BME280;47353;51.614;5.530;2022-11-20T08:49:10;101109.09;;;-0.37;95.63
59789;BME280;47353;51.614;5.530;2022-11-20T08:51:36;101109.38;;;-0.26;95.05
59789;BME280;47353;51.614;5.530;2022-11-20T08:54:02;101102.13;;;-0.19;94.91
59789;BME280;47353;51.614;5.530;2022-11-20T08:56:28;101097.13;;;-0.09;94.16
59789;BME280;47353;51.614;5.530;2022-11-20T08:58:53;101096.97;;;-0.01;nan
59789;BME280;47353;51.614;5.530;2022-11-20T09:01:20;101101.16;;;0.02;94.08
59789;BME280;47353;51.614;5.530;2022-11-20T09:03:45;101102.84;;;0.10;93.88
59789;BME280;47353;51.614;5.530;2022-11-20T09:06:11;101094.72;;;0.16;93.94
59789;BME280;47353;51.614;5.530;2022-11-20T09:08:36;101099.78;;;0.26;94.00
59789;BME280;47353;51.614;5.530;2022-11-20T09:11:02;101094.78;;;0.29;92.89
59789;BME280;47353;51.614;5.530;2022-11-20T09:13:28;101092.06;;;0.29;93.67
59789;BME280;47353;51.614;5.530;2022-11-20T09:15:56;101083.06;;;0.35;92.68
59789;BME280;47353;51.614;5.530;2022-11-20T09:18:22;101081.41;;;0.41;91.90
59789;BME280;47353;51.614;5.530;2022-11-20T09:20:47;101080.78;;;0.45;92.20
59789;BME280;47353;51.614;5.530;2022-11-20T09:23:14;101080.38;;;0.48;92.36
59789;BME280;47353;51.614;5.530;2022-11-20T09:25:39;101082.28;;;0.48;92.31
59789;BME280;47353;51.614;5.530;2022-11-20T09:28:04;101068.22;;;0.44;92.26
59789;BME280;47353;51.614;5.530;2022-11-20T09:30:30;101065.94;;;0.54;92.14
59789;BME280;47353;51.614;5.530;2022-11-20T09:32:56;101068.63;;;0.41;92.78
59789;BME280;47353;51.614;5.530;2022-11-20T09:35:21;101066.56;;;0.50;92.60
59789;BME280;47353;51.614;5.530;2022-11-20T09:37:47;101060.69;;;0.53;92.93
59789;BME280;47353;51.614;5.530;2022-11-20T09:40:22;101078.72;;;0.60;92.53
59789;BME280;47353;51.614;5.530;2022-11-20T09:43:02;101059.66;;;0.60;93.01
59789;BME280;47353;51.614;5.530;2022-11-20T09:48:29;101050.44;;;0.74;93.64
59789;BME280;47353;51.614;5.530;2022-11-20T09:53:59;101052.78;;;0.97;92.94
59789;BME280;47353;51.614;5.530;2022-11-20T09:56:29;101054.44;;;0.91;92.06
59789;BME280;47353;51.614;5.530;2022-11-20T09:58:58;101054.44;;;0.91;93.32
59789;BME280;47353;51.614;5.530;2022-11-20T10:01:31;101047.13;;;0.92;93.51
59789;BME280;47353;51.614;5.530;2022-11-20T10:06:42;101048.38;;;1.09;93.50
59789;BME280;47353;51.614;5.530;2022-11-20T10:09:16;101045.66;;;1.09;93.68
59789;BME280;47353;51.614;5.530;2022-11-20T10:11:56;101034.72;;;1.22;93.38
59789;BME280;47353;51.614;5.530;2022-11-20T10:14:29;101029.69;;;1.25;94.05
59789;BME280;47353;51.614;5.530;2022-11-20T10:22:42;101010.38;;;1.33;94.01
59789;BME280;47353;51.614;5.530;2022-11-20T10:25:18;101001.56;;;1.38;94.30
59789;BME280;47353;51.614;5.530;2022-11-20T10:30:17;100991.25;;;1.53;93.15
59789;BME280;47353;51.614;5.530;2022-11-20T10:32:46;100990.00;;;1.49;93.89
59789;BME280;47353;51.614;5.530;2022-11-20T10:35:22;100968.59;;;1.52;94.65
59789;BME280;47353;51.614;5.530;2022-11-20T10:37:55;100963.06;;;1.65;93.94
59789;BME280;47353;51.614;5.530;2022-11-20T10:40:36;100960.75;;;1.76;93.76
59789;BME280;47353;51.614;5.530;2022-11-20T10:43:23;100940.75;;;1.88;93.75
59789;BME280;47353;51.614;5.530;2022-11-20T10:46:05;100936.47;;;1.99;93.04
59789;BME280;47353;51.614;5.530;2022-11-20T10:48:33;100938.22;;;2.18;92.82
59789;BME280;47353;51.614;5.530;2022-11-20T10:53:56;100924.34;;;2.50;92.54
59789;BME280;47353;51.614;5.530;2022-11-20T10:56:46;100918.50;;;2.71;92.11
59789;BME280;47353;51.614;5.530;2022-11-20T11:01:53;100915.75;;;2.96;91.98
59789;BME280;47353;51.614;5.530;2022-11-20T11:06:58;100908.75;;;3.18;90.33
59789;BME280;47353;51.614;5.530;2022-11-20T11:09:33;100898.44;;;3.20;89.53
59789;BME280;47353;51.614;5.530;2022-11-20T11:12:00;100899.56;;;3.12;89.67
59789;BME280;47353;51.614;5.530;2022-11-20T11:14:25;100898.25;;;2.97;90.49
59789;BME280;47353;51.614;5.530;2022-11-20T11:16:55;100891.88;;;2.85;90.86
59789;BME280;47353;51.614;5.530;2022-11-20T11:19:21;100893.69;;;2.73;91.35
59789;BME280;47353;51.614;5.530;2022-11-20T11:21:54;100886.56;;;2.65;92.24
59789;BME280;47353;51.614;5.530;2022-11-20T11:24:29;100885.94;;;2.70;91.86
59789;BME280;47353;51.614;5.530;2022-11-20T11:27:01;100890.28;;;2.53;93.01
59789;BME280;47353;51.614;5.530;2022-11-20T11:29:32;100890.59;;;2.63;92.44
59789;BME280;47353;51.614;5.530;2022-11-20T11:32:27;100884.75;;;2.59;93.49
59789;BME280;47353;51.614;5.530;2022-11-20T11:35:00;100886.50;;;2.54;94.01
59789;BME280;47353;51.614;5.530;2022-11-20T11:37:33;100879.97;;;2.55;93.75
59789;BME280;47353;51.614;5.530;2022-11-20T11:40:00;100887.94;;;2.56;94.04
59789;BME280;47353;51.614;5.530;2022-11-20T11:42:27;100882.41;;;2.63;94.28
59789;BME280;47353;51.614;5.530;2022-11-20T11:44:54;100880.13;;;2.60;94.58
59789;BME280;47353;51.614;5.530;2022-11-20T11:50:18;100867.63;;;2.70;95.01
59789;BME280;47353;51.614;5.530;2022-11-20T11:53:09;100873.13;;;2.64;95.03
59789;BME280;47353;51.614;5.530;2022-11-20T11:56:04;100863.22;;;2.69;94.83
59789;BME280;47353;51.614;5.530;2022-11-20T11:58:45;100863.69;;;2.66;95.62
59789;BME280;47353;51.614;5.530;2022-11-20T12:01:50;100852.13;;;2.64;95.88
59789;BME280;47353;51.614;5.530;2022-11-20T12:04:23;100844.84;;;2.76;94.58
59789;BME280;47353;51.614;5.530;2022-11-20T12:10:00;100817.97;;;2.73;95.67
59789;BME280;47353;51.614;5.530;2022-11-20T12:12:35;100819.03;;;2.90;95.08
59789;BME280;47353;51.614;5.530;2022-11-20T12:15:02;100801.56;;;2.73;96.44
59789;BME280;47353;51.614;5.530;2022-11-20T12:17:29;100787.16;;;2.84;95.77
59789;BME280;47353;51.614;5.530;2022-11-20T12:19:54;100785.28;;;2.85;95.92
59789;BME280;47353;51.614;5.530;2022-11-20T12:22:31;100780.72;;;2.79;97.16
59789;BME280;47353;51.614;5.530;2022-11-20T12:25:14;100777.66;;;2.87;96.69
59789;BME280;47353;51.614;5.530;2022-11-20T12:28:02;100775.09;;;2.92;97.30
59789;BME280;47353;51.614;5.530;2022-11-20T12:30:32;100757.75;;;2.98;96.83
59789;BME280;47353;51.614;5.530;2022-11-20T12:41:29;100736.50;;;3.00;96.91
59789;BME280;47353;51.614;5.530;2022-11-20T12:53:04;100721.63;;;3.25;97.76
59789;BME280;47353;51.614;5.530;2022-11-20T12:55:42;100722.00;;;3.29;98.50
59789;BME280;47353;51.614;5.530;2022-11-20T12:58:31;100718.97;;;3.48;97.56
59789;BME280;47353;51.614;5.530;2022-11-20T13:07:16;100692.00;;;3.64;96.23
59789;BME280;47353;51.614;5.530;2022-11-20T13:09:47;100689.97;;;3.71;96.18
59789;BME280;47353;51.614;5.530;2022-11-20T13:12:29;100677.75;;;3.73;96.60
59789;BME280;47353;51.614;5.530;2022-11-20T13:17:40;100675.47;;;3.59;97.26
59789;BME280;47353;51.614;5.530;2022-11-20T13:20:16;100662.47;;;3.66;96.81
59789;BME280;47353;51.614;5.530;2022-11-20T13:22:45;100664.47;;;3.47;97.47
59789;BME280;47353;51.614;5.530;2022-11-20T13:25:23;100660.31;;;3.44;98.60
59789;BME280;47353;51.614;5.530;2022-11-20T13:27:49;100639.41;;;3.62;97.39
59789;BME280;47353;51.614;5.530;2022-11-20T13:30:18;100644.41;;;3.53;98.30
59789;BME280;47353;51.614;5.530;2022-11-20T13:32:56;100636.44;;;3.52;98.94
59789;BME280;47353;51.614;5.530;2022-11-20T13:38:07;100631.66;;;3.59;99.47
59789;BME280;47353;51.614;5.530;2022-11-20T13:40:36;100619.16;;;3.63;98.25
59789;BME280;47353;51.614;5.530;2022-11-20T13:48:23;100610.50;;;3.54;100.00
59789;BME280;47353;51.614;5.530;2022-11-20T13:51:03;100612.75;;;3.57;100.00
59789;BME280;47353;51.614;5.530;2022-11-20T13:53:55;100605.25;;;3.53;100.00
59789;BME280;47353;51.614;5.530;2022-11-20T13:56:54;100595.50;;;3.57;100.00
59789;BME280;47353;51.614;5.530;2022-11-20T14:02:13;100596.00;;;3.65;99.06
59789;BME280;47353;51.614;5.530;2022-11-20T14:04:43;100596.91;;;3.47;100.00
59789;BME280;47353;51.614;5.530;2022-11-20T14:07:10;100598.47;;;3.55;100.00
59789;BME280;47353;51.614;5.530;2022-11-20T14:09:36;100592.06;;;3.50;100.00
59789;BME280;47353;51.614;5.530;2022-11-20T14:12:03;100576.34;;;3.57;100.00